sensor_id;sensor_type;location;lat;lon;timestamp;temperature;humidity
16966;DHT22;8599;47.852;12.070;2022-07-17T00:00:28;18.40;99.90
16966;DHT22;8599;47.852;12.070;2022-07-17T00:02:55;18.30;99.90
16966;DHT22;8599;47.852;12.070;2022-07-17T00:05:22;18.30;99.90
16966;DHT22;8599;47.852;12.070;2022-07-17T00:07:50;18.20;99.90
16966;DHT22;8599;47.852;12.070;2022-07-17T00:10:17;18.20;99.90
16966;DHT22;8599;47.852;12.070;2022-07-17T00:12:44;18.20;99.90
16966;DHT22;8599;47.852;12.070;2022-07-17T00:15:11;18.00;99.90
16966;DHT22;8599;47.852;12.070;2022-07-17T00:17:38;17.90;99.90
16966;DHT22;8599;47.852;12.070;2022-07-17T00:20:05;17.90;99.90
16966;DHT22;8599;47.852;12.070;2022-07-17T00:22:33;17.90;99.90
16966;DHT22;8599;47.852;12.070;2022-07-17T00:25:01;17.90;99.90
16966;DHT22;8599;47.852;12.070;2022-07-17T00:27:28;17.90;99.90
16966;DHT22;8599;47.852;12.070;2022-07-17T00:29:55;17.90;99.90
16966;DHT22;8599;47.852;12.070;2022-07-17T00:32:22;17.90;99.90
16966;DHT22;8599;47.852;12.070;2022-07-17T00:34:50;18.00;99.90
16966;DHT22;8599;47.852;12.070;2022-07-17T00:37:16;18.10;99.90
16966;DHT22;8599;47.852;12.070;2022-07-17T00:39:44;18.10;99.90
16966;DHT22;8599;47.852;12.070;2022-07-17T00:42:12;18.00;99.90
16966;DHT22;8599;47.852;12.070;2022-07-17T00:44:40;18.00;99.90
16966;DHT22;8599;47.852;12.070;2022-07-17T00:47:11;18.00;99.90
16966;DHT22;8599;47.852;12.070;2022-07-17T00:49:38;18.00;99.90
16966;DHT22;8599;47.852;12.070;2022-07-17T00:52:06;18.00;99.90
16966;DHT22;8599;47.852;12.070;2022-07-17T00:54:35;17.90;99.90
16966;DHT22;8599;47.852;12.070;2022-07-17T00:57:06;17.80;99.90
16966;DHT22;8599;47.852;12.070;2022-07-17T00:59:36;17.60;99.90
16966;DHT22;8599;47.852;12.070;2022-07-17T01:02:04;17.20;99.90
16966;DHT22;8599;47.852;12.070;2022-07-17T01:04:31;17.10;99.90
16966;DHT22;8599;47.852;12.070;2022-07-17T01:06:59;17.20;99.90
16966;DHT22;8599;47.852;12.070;2022-07-17T01:09:26;17.20;99.90
16966;DHT22;8599;47.852;12.070;2022-07-17T01:11:53;17.30;99.90
16966;DHT22;8599;47.852;12.070;2022-07-17T01:14:21;17.40;99.90
16966;DHT22;8599;47.852;12.070;2022-07-17T01:16:50;17.50;99.90
16966;DHT22;8599;47.852;12.070;2022-07-17T01:19:17;17.50;99.90
16966;DHT22;8599;47.852;12.070;2022-07-17T01:21:49;17.50;99.90
16966;DHT22;8599;47.852;12.070;2022-07-17T01:24:17;17.50;99.90
16966;DHT22;8599;47.852;12.070;2022-07-17T01:26:46;17.60;99.90
16966;DHT22;8599;47.852;12.070;2022-07-17T01:29:14;17.50;99.90
16966;DHT22;8599;47.852;12.070;2022-07-17T01:31:42;17.30;99.90
16966;DHT22;8599;47.852;12.070;2022-07-17T01:34:10;17.30;99.90
16966;DHT22;8599;47.852;12.070;2022-07-17T01:36:38;17.30;99.90
16966;DHT22;8599;47.852;12.070;2022-07-17T01:39:06;17.40;99.90
16966;DHT22;8599;47.852;12.070;2022-07-17T01:41:33;17.30;99.90
16966;DHT22;8599;47.852;12.070;2022-07-17T01:44:00;17.20;99.90
16966;DHT22;8599;47.852;12.070;2022-07-17T01:46:28;17.20;99.90
16966;DHT22;8599;47.852;12.070;2022-07-17T01:48:55;17.30;99.90
16966;DHT22;8599;47.852;12.070;2022-07-17T01:51:22;17.30;99.90
16966;DHT22;8599;47.852;12.070;2022-07-17T01:53:49;17.20;99.90
16966;DHT22;8599;47.852;12.070;2022-07-17T01:56:17;17.20;99.90
16966;DHT22;8599;47.852;12.070;2022-07-17T01:58:44;17.20;99.90
16966;DHT22;8599;47.852;12.070;2022-07-17T02:01:11;17.10;99.90
16966;DHT22;8599;47.852;12.070;2022-07-17T02:03:38;17.00;99.90
16966;DHT22;8599;47.852;12.070;2022-07-17T02:06:04;17.00;99.90
16966;DHT22;8599;47.852;12.070;2022-07-17T02:08:31;16.60;99.90
16966;DHT22;8599;47.852;12.070;2022-07-17T02:10:58;16.60;99.90
16966;DHT22;8599;47.852;12.070;2022-07-17T02:13:26;16.60;99.90
16966;DHT22;8599;47.852;12.070;2022-07-17T02:15:53;16.50;99.90
16966;DHT22;8599;47.852;12.070;2022-07-17T02:18:20;16.40;99.90
16966;DHT22;8599;47.852;12.070;2022-07-17T02:20:47;16.20;99.90
16966;DHT22;8599;47.852;12.070;2022-07-17T02:23:15;15.90;99.90
16966;DHT22;8599;47.852;12.070;2022-07-17T02:25:42;15.90;99.90
16966;DHT22;8599;47.852;12.070;2022-07-17T02:28:09;16.00;99.90
16966;DHT22;8599;47.852;12.070;2022-07-17T02:30:37;16.20;99.90
16966;DHT22;8599;47.852;12.070;2022-07-17T02:33:04;16.20;99.90
16966;DHT22;8599;47.852;12.070;2022-07-17T02:35:32;16.20;99.90
16966;DHT22;8599;47.852;12.070;2022-07-17T02:37:59;16.30;99.90
16966;DHT22;8599;47.852;12.070;2022-07-17T02:40:26;16.30;99.90
16966;DHT22;8599;47.852;12.070;2022-07-17T02:42:53;16.30;99.90
16966;DHT22;8599;47.852;12.070;2022-07-17T02:45:20;16.30;99.90
16966;DHT22;8599;47.852;12.070;2022-07-17T02:47:51;16.30;99.90
16966;DHT22;8599;47.852;12.070;2022-07-17T02:50:18;16.40;99.90
16966;DHT22;8599;47.852;12.070;2022-07-17T02:52:46;16.40;99.90
16966;DHT22;8599;47.852;12.070;2022-07-17T02:55:15;16.40;99.90
16966;DHT22;8599;47.852;12.070;2022-07-17T02:57:43;16.50;99.90
16966;DHT22;8599;47.852;12.070;2022-07-17T03:00:13;16.50;99.90
16966;DHT22;8599;47.852;12.070;2022-07-17T03:02:41;16.50;99.90
16966;DHT22;8599;47.852;12.070;2022-07-17T03:05:10;16.50;99.90
16966;DHT22;8599;47.852;12.070;2022-07-17T03:07:37;16.50;99.90
16966;DHT22;8599;47.852;12.070;2022-07-17T03:10:05;16.50;99.90
16966;DHT22;8599;47.852;12.070;2022-07-17T03:12:32;16.50;99.90
16966;DHT22;8599;47.852;12.070;2022-07-17T03:14:59;16.40;99.90
16966;DHT22;8599;47.852;12.070;2022-07-17T03:17:26;16.20;99.90
16966;DHT22;8599;47.852;12.070;2022-07-17T03:19:53;16.20;99.90
16966;DHT22;8599;47.852;12.070;2022-07-17T03:22:21;16.30;99.90
16966;DHT22;8599;47.852;12.070;2022-07-17T03:24:48;16.30;99.90
16966;DHT22;8599;47.852;12.070;2022-07-17T03:27:15;16.30;99.90
16966;DHT22;8599;47.852;12.070;2022-07-17T03:29:42;16.20;99.90
16966;DHT22;8599;47.852;12.070;2022-07-17T03:32:09;16.10;99.90
16966;DHT22;8599;47.852;12.070;2022-07-17T03:34:37;15.90;99.90
16966;DHT22;8599;47.852;12.070;2022-07-17T03:37:04;15.60;99.90
16966;DHT22;8599;47.852;12.070;2022-07-17T03:39:32;15.50;99.90
16966;DHT22;8599;47.852;12.070;2022-07-17T03:41:59;15.50;99.90
16966;DHT22;8599;47.852;12.070;2022-07-17T03:44:26;15.50;99.90
16966;DHT22;8599;47.852;12.070;2022-07-17T03:46:53;15.60;99.90
16966;DHT22;8599;47.852;12.070;2022-07-17T03:49:20;15.70;99.90
16966;DHT22;8599;47.852;12.070;2022-07-17T03:51:47;15.70;99.90
16966;DHT22;8599;47.852;12.070;2022-07-17T03:54:14;15.80;99.90
16966;DHT22;8599;47.852;12.070;2022-07-17T03:56:43;15.80;99.90
16966;DHT22;8599;47.852;12.070;2022-07-17T03:59:09;15.90;99.90
16966;DHT22;8599;47.852;12.070;2022-07-17T04:01:36;16.00;99.90
16966;DHT22;8599;47.852;12.070;2022-07-17T04:04:04;16.10;99.90
16966;DHT22;8599;47.852;12.070;2022-07-17T04:06:31;16.00;99.90
16966;DHT22;8599;47.852;12.070;2022-07-17T04:08:58;15.90;99.90
16966;DHT22;8599;47.852;12.070;2022-07-17T04:11:25;15.80;99.90
16966;DHT22;8599;47.852;12.070;2022-07-17T04:13:53;15.60;99.90
16966;DHT22;8599;47.852;12.070;2022-07-17T04:16:20;15.60;99.90
16966;DHT22;8599;47.852;12.070;2022-07-17T04:18:47;15.40;99.90
16966;DHT22;8599;47.852;12.070;2022-07-17T04:21:14;15.60;99.90
16966;DHT22;8599;47.852;12.070;2022-07-17T04:23:41;15.70;99.90
16966;DHT22;8599;47.852;12.070;2022-07-17T04:26:08;15.90;99.90
16966;DHT22;8599;47.852;12.070;2022-07-17T04:28:35;16.00;99.90
16966;DHT22;8599;47.852;12.070;2022-07-17T04:31:03;16.10;99.90
16966;DHT22;8599;47.852;12.070;2022-07-17T04:33:30;16.20;99.90
16966;DHT22;8599;47.852;12.070;2022-07-17T04:35:57;16.30;99.90
16966;DHT22;8599;47.852;12.070;2022-07-17T04:38:24;16.30;99.90
16966;DHT22;8599;47.852;12.070;2022-07-17T04:40:51;16.40;99.90
16966;DHT22;8599;47.852;12.070;2022-07-17T04:43:18;16.40;99.90
16966;DHT22;8599;47.852;12.070;2022-07-17T04:45:45;16.40;99.90
16966;DHT22;8599;47.852;12.070;2022-07-17T04:48:13;16.40;99.90
16966;DHT22;8599;47.852;12.070;2022-07-17T04:50:41;16.60;99.90
16966;DHT22;8599;47.852;12.070;2022-07-17T04:53:08;16.80;99.90
16966;DHT22;8599;47.852;12.070;2022-07-17T04:55:34;17.00;99.90
16966;DHT22;8599;47.852;12.070;2022-07-17T04:58:02;17.10;99.90
16966;DHT22;8599;47.852;12.070;2022-07-17T05:00:29;17.20;99.90
16966;DHT22;8599;47.852;12.070;2022-07-17T05:02:56;17.30;99.90
16966;DHT22;8599;47.852;12.070;2022-07-17T05:05:24;17.30;99.90
16966;DHT22;8599;47.852;12.070;2022-07-17T05:07:51;17.40;99.90
16966;DHT22;8599;47.852;12.070;2022-07-17T05:10:18;17.40;99.90
16966;DHT22;8599;47.852;12.070;2022-07-17T05:12:45;17.50;99.90
16966;DHT22;8599;47.852;12.070;2022-07-17T05:15:12;17.50;99.90
16966;DHT22;8599;47.852;12.070;2022-07-17T05:17:39;17.60;99.90
16966;DHT22;8599;47.852;12.070;2022-07-17T05:20:07;17.70;99.90
16966;DHT22;8599;47.852;12.070;2022-07-17T05:22:35;17.80;99.90
16966;DHT22;8599;47.852;12.070;2022-07-17T05:25:03;17.90;99.90
16966;DHT22;8599;47.852;12.070;2022-07-17T05:27:30;17.90;99.90
16966;DHT22;8599;47.852;12.070;2022-07-17T05:29:57;17.90;99.90
16966;DHT22;8599;47.852;12.070;2022-07-17T05:32:24;17.80;99.90
16966;DHT22;8599;47.852;12.070;2022-07-17T05:34:51;17.90;99.90
16966;DHT22;8599;47.852;12.070;2022-07-17T05:37:17;17.90;99.90
16966;DHT22;8599;47.852;12.070;2022-07-17T05:39:46;17.90;99.90
16966;DHT22;8599;47.852;12.070;2022-07-17T05:42:12;18.00;99.90
16966;DHT22;8599;47.852;12.070;2022-07-17T05:44:39;18.10;99.90
16966;DHT22;8599;47.852;12.070;2022-07-17T05:47:06;18.30;99.90
16966;DHT22;8599;47.852;12.070;2022-07-17T05:49:33;18.50;99.90
16966;DHT22;8599;47.852;12.070;2022-07-17T05:52:00;18.50;99.90
16966;DHT22;8599;47.852;12.070;2022-07-17T05:54:27;18.70;99.90
16966;DHT22;8599;47.852;12.070;2022-07-17T05:56:55;18.70;99.90
16966;DHT22;8599;47.852;12.070;2022-07-17T05:59:22;18.70;99.90
16966;DHT22;8599;47.852;12.070;2022-07-17T06:01:49;18.80;99.90
16966;DHT22;8599;47.852;12.070;2022-07-17T06:04:15;18.90;99.90
16966;DHT22;8599;47.852;12.070;2022-07-17T06:06:42;18.90;99.90
16966;DHT22;8599;47.852;12.070;2022-07-17T06:09:09;19.00;99.90
16966;DHT22;8599;47.852;12.070;2022-07-17T06:11:36;19.10;99.90
16966;DHT22;8599;47.852;12.070;2022-07-17T06:14:05;19.20;99.90
16966;DHT22;8599;47.852;12.070;2022-07-17T06:16:32;19.30;99.90
16966;DHT22;8599;47.852;12.070;2022-07-17T06:18:59;19.30;99.90
16966;DHT22;8599;47.852;12.070;2022-07-17T06:21:26;19.30;99.90
16966;DHT22;8599;47.852;12.070;2022-07-17T06:23:53;19.40;99.90
16966;DHT22;8599;47.852;12.070;2022-07-17T06:26:20;19.40;99.90
16966;DHT22;8599;47.852;12.070;2022-07-17T06:28:47;19.60;99.90
16966;DHT22;8599;47.852;12.070;2022-07-17T06:31:16;19.60;99.90
16966;DHT22;8599;47.852;12.070;2022-07-17T06:33:43;19.50;99.90
16966;DHT22;8599;47.852;12.070;2022-07-17T06:36:10;19.60;99.90
16966;DHT22;8599;47.852;12.070;2022-07-17T06:38:37;19.50;99.90
16966;DHT22;8599;47.852;12.070;2022-07-17T06:41:04;19.60;99.90
16966;DHT22;8599;47.852;12.070;2022-07-17T06:43:31;19.70;99.90
16966;DHT22;8599;47.852;12.070;2022-07-17T06:45:58;19.80;99.90
16966;DHT22;8599;47.852;12.070;2022-07-17T06:48:28;19.70;99.90
16966;DHT22;8599;47.852;12.070;2022-07-17T06:50:55;19.70;99.90
16966;DHT22;8599;47.852;12.070;2022-07-17T06:53:22;19.70;99.90
16966;DHT22;8599;47.852;12.070;2022-07-17T06:55:49;19.80;99.90
16966;DHT22;8599;47.852;12.070;2022-07-17T06:58:16;19.80;99.90
16966;DHT22;8599;47.852;12.070;2022-07-17T07:00:43;19.80;99.90
16966;DHT22;8599;47.852;12.070;2022-07-17T07:03:10;19.90;99.90
16966;DHT22;8599;47.852;12.070;2022-07-17T07:05:38;20.00;99.90
16966;DHT22;8599;47.852;12.070;2022-07-17T07:08:05;19.90;99.90
16966;DHT22;8599;47.852;12.070;2022-07-17T07:10:32;20.00;99.90
16966;DHT22;8599;47.852;12.070;2022-07-17T07:12:59;20.10;99.90
16966;DHT22;8599;47.852;12.070;2022-07-17T07:15:26;20.10;99.90
16966;DHT22;8599;47.852;12.070;2022-07-17T07:17:52;20.20;99.90
16966;DHT22;8599;47.852;12.070;2022-07-17T07:20:19;20.20;99.90
16966;DHT22;8599;47.852;12.070;2022-07-17T07:22:48;20.20;99.90
16966;DHT22;8599;47.852;12.070;2022-07-17T07:25:15;20.30;99.90
16966;DHT22;8599;47.852;12.070;2022-07-17T07:27:41;20.40;99.90
16966;DHT22;8599;47.852;12.070;2022-07-17T07:30:09;20.40;99.90
16966;DHT22;8599;47.852;12.070;2022-07-17T07:32:36;20.30;99.90
16966;DHT22;8599;47.852;12.070;2022-07-17T07:35:04;20.30;99.90
16966;DHT22;8599;47.852;12.070;2022-07-17T07:37:32;20.40;99.90
16966;DHT22;8599;47.852;12.070;2022-07-17T07:40:00;20.50;99.90
16966;DHT22;8599;47.852;12.070;2022-07-17T07:42:27;20.60;99.90
16966;DHT22;8599;47.852;12.070;2022-07-17T07:44:55;20.50;99.90
16966;DHT22;8599;47.852;12.070;2022-07-17T07:47:22;20.40;99.90
16966;DHT22;8599;47.852;12.070;2022-07-17T07:49:48;20.40;99.90
16966;DHT22;8599;47.852;12.070;2022-07-17T07:52:15;20.50;99.90
16966;DHT22;8599;47.852;12.070;2022-07-17T07:54:42;20.60;99.90
16966;DHT22;8599;47.852;12.070;2022-07-17T07:57:11;20.70;99.90
16966;DHT22;8599;47.852;12.070;2022-07-17T07:59:37;20.70;99.90
16966;DHT22;8599;47.852;12.070;2022-07-17T08:02:05;20.70;99.90
16966;DHT22;8599;47.852;12.070;2022-07-17T08:04:31;20.90;99.90
16966;DHT22;8599;47.852;12.070;2022-07-17T08:06:59;20.90;99.90
16966;DHT22;8599;47.852;12.070;2022-07-17T08:09:25;20.90;99.90
16966;DHT22;8599;47.852;12.070;2022-07-17T08:11:52;20.90;99.90
16966;DHT22;8599;47.852;12.070;2022-07-17T08:14:21;21.10;99.60
16966;DHT22;8599;47.852;12.070;2022-07-17T08:16:47;21.10;99.70
16966;DHT22;8599;47.852;12.070;2022-07-17T08:19:14;21.10;98.90
16966;DHT22;8599;47.852;12.070;2022-07-17T08:21:41;21.10;98.30
16966;DHT22;8599;47.852;12.070;2022-07-17T08:24:08;21.10;98.70
16966;DHT22;8599;47.852;12.070;2022-07-17T08:26:35;21.10;98.20
16966;DHT22;8599;47.852;12.070;2022-07-17T08:29:02;21.20;98.80
16966;DHT22;8599;47.852;12.070;2022-07-17T08:31:30;21.20;98.00
16966;DHT22;8599;47.852;12.070;2022-07-17T08:33:57;21.20;98.10
16966;DHT22;8599;47.852;12.070;2022-07-17T08:36:24;21.30;97.90
16966;DHT22;8599;47.852;12.070;2022-07-17T08:38:51;21.30;98.20
16966;DHT22;8599;47.852;12.070;2022-07-17T08:41:18;21.40;97.80
16966;DHT22;8599;47.852;12.070;2022-07-17T08:43:48;21.40;98.50
16966;DHT22;8599;47.852;12.070;2022-07-17T08:46:16;21.50;98.20
16966;DHT22;8599;47.852;12.070;2022-07-17T08:48:46;21.50;98.10
16966;DHT22;8599;47.852;12.070;2022-07-17T08:51:16;21.70;98.80
16966;DHT22;8599;47.852;12.070;2022-07-17T08:53:44;21.80;97.80
16966;DHT22;8599;47.852;12.070;2022-07-17T08:56:11;21.60;98.30
16966;DHT22;8599;47.852;12.070;2022-07-17T08:58:37;21.70;99.60
16966;DHT22;8599;47.852;12.070;2022-07-17T09:01:05;21.80;98.90
16966;DHT22;8599;47.852;12.070;2022-07-17T09:03:32;22.00;98.90
16966;DHT22;8599;47.852;12.070;2022-07-17T09:06:00;22.10;98.30
16966;DHT22;8599;47.852;12.070;2022-07-17T09:08:27;22.20;98.50
16966;DHT22;8599;47.852;12.070;2022-07-17T09:10:59;22.20;98.80
16966;DHT22;8599;47.852;12.070;2022-07-17T09:13:27;22.20;98.80
16966;DHT22;8599;47.852;12.070;2022-07-17T09:15:57;22.20;98.90
16966;DHT22;8599;47.852;12.070;2022-07-17T09:18:25;22.30;98.50
16966;DHT22;8599;47.852;12.070;2022-07-17T09:20:55;22.30;98.50
16966;DHT22;8599;47.852;12.070;2022-07-17T09:23:25;22.40;99.30
16966;DHT22;8599;47.852;12.070;2022-07-17T09:25:54;22.40;99.50
16966;DHT22;8599;47.852;12.070;2022-07-17T09:28:21;22.60;99.10
16966;DHT22;8599;47.852;12.070;2022-07-17T09:30:50;22.70;98.00
16966;DHT22;8599;47.852;12.070;2022-07-17T09:33:18;22.70;99.50
16966;DHT22;8599;47.852;12.070;2022-07-17T09:35:50;22.70;99.90
16966;DHT22;8599;47.852;12.070;2022-07-17T09:38:33;22.80;98.90
16966;DHT22;8599;47.852;12.070;2022-07-17T09:41:09;22.60;98.00
16966;DHT22;8599;47.852;12.070;2022-07-17T09:43:41;22.70;98.90
16966;DHT22;8599;47.852;12.070;2022-07-17T09:46:12;22.80;98.80
16966;DHT22;8599;47.852;12.070;2022-07-17T09:48:42;22.70;98.90
16966;DHT22;8599;47.852;12.070;2022-07-17T09:51:18;22.80;98.00
16966;DHT22;8599;47.852;12.070;2022-07-17T09:53:48;22.90;97.10
16966;DHT22;8599;47.852;12.070;2022-07-17T09:56:16;23.00;96.30
16966;DHT22;8599;47.852;12.070;2022-07-17T09:58:46;22.80;95.90
16966;DHT22;8599;47.852;12.070;2022-07-17T10:01:14;23.00;94.90
16966;DHT22;8599;47.852;12.070;2022-07-17T10:03:42;23.10;95.60
16966;DHT22;8599;47.852;12.070;2022-07-17T10:06:09;23.30;95.00
16966;DHT22;8599;47.852;12.070;2022-07-17T10:08:37;23.40;95.00
16966;DHT22;8599;47.852;12.070;2022-07-17T10:11:05;23.40;94.70
16966;DHT22;8599;47.852;12.070;2022-07-17T10:13:33;23.50;94.50
16966;DHT22;8599;47.852;12.070;2022-07-17T10:16:01;23.40;93.70
16966;DHT22;8599;47.852;12.070;2022-07-17T10:18:35;23.40;92.30
16966;DHT22;8599;47.852;12.070;2022-07-17T10:21:13;23.30;93.40
16966;DHT22;8599;47.852;12.070;2022-07-17T10:23:41;23.40;92.60
16966;DHT22;8599;47.852;12.070;2022-07-17T10:26:10;23.50;92.40
16966;DHT22;8599;47.852;12.070;2022-07-17T10:28:40;23.60;93.00
16966;DHT22;8599;47.852;12.070;2022-07-17T10:31:07;23.70;93.20
16966;DHT22;8599;47.852;12.070;2022-07-17T10:33:34;23.90;91.90
16966;DHT22;8599;47.852;12.070;2022-07-17T10:36:01;24.10;91.40
16966;DHT22;8599;47.852;12.070;2022-07-17T10:38:28;24.10;91.00
16966;DHT22;8599;47.852;12.070;2022-07-17T10:40:59;23.90;91.40
16966;DHT22;8599;47.852;12.070;2022-07-17T10:43:42;23.80;91.40
16966;DHT22;8599;47.852;12.070;2022-07-17T10:46:09;23.90;92.00
16966;DHT22;8599;47.852;12.070;2022-07-17T10:48:38;23.90;92.50
16966;DHT22;8599;47.852;12.070;2022-07-17T10:51:06;24.10;91.60
16966;DHT22;8599;47.852;12.070;2022-07-17T10:53:34;24.10;90.60
16966;DHT22;8599;47.852;12.070;2022-07-17T10:56:02;24.10;91.30
16966;DHT22;8599;47.852;12.070;2022-07-17T10:58:33;24.10;91.50
16966;DHT22;8599;47.852;12.070;2022-07-17T11:01:05;24.10;92.10
16966;DHT22;8599;47.852;12.070;2022-07-17T11:03:37;24.10;91.60
16966;DHT22;8599;47.852;12.070;2022-07-17T11:06:13;24.30;91.00
16966;DHT22;8599;47.852;12.070;2022-07-17T11:08:42;24.50;90.30
16966;DHT22;8599;47.852;12.070;2022-07-17T11:11:09;24.50;90.30
16966;DHT22;8599;47.852;12.070;2022-07-17T11:13:37;24.70;90.30
16966;DHT22;8599;47.852;12.070;2022-07-17T11:16:04;24.70;90.50
16966;DHT22;8599;47.852;12.070;2022-07-17T11:18:32;24.70;90.50
16966;DHT22;8599;47.852;12.070;2022-07-17T11:21:01;24.70;89.50
16966;DHT22;8599;47.852;12.070;2022-07-17T11:23:30;24.70;89.40
16966;DHT22;8599;47.852;12.070;2022-07-17T11:25:59;24.70;89.40
16966;DHT22;8599;47.852;12.070;2022-07-17T11:28:32;24.80;87.80
16966;DHT22;8599;47.852;12.070;2022-07-17T11:31:02;25.00;88.10
16966;DHT22;8599;47.852;12.070;2022-07-17T11:33:29;25.00;88.50
16966;DHT22;8599;47.852;12.070;2022-07-17T11:35:56;25.10;87.80
16966;DHT22;8599;47.852;12.070;2022-07-17T11:38:28;25.20;87.20
16966;DHT22;8599;47.852;12.070;2022-07-17T11:40:55;25.10;87.40
16966;DHT22;8599;47.852;12.070;2022-07-17T11:43:23;25.30;87.00
16966;DHT22;8599;47.852;12.070;2022-07-17T11:45:50;25.30;86.00
16966;DHT22;8599;47.852;12.070;2022-07-17T11:48:18;25.30;87.60
16966;DHT22;8599;47.852;12.070;2022-07-17T11:50:55;25.50;85.50
16966;DHT22;8599;47.852;12.070;2022-07-17T11:53:32;25.60;83.70
16966;DHT22;8599;47.852;12.070;2022-07-17T11:56:00;25.60;83.60
16966;DHT22;8599;47.852;12.070;2022-07-17T11:58:27;25.60;83.80
16966;DHT22;8599;47.852;12.070;2022-07-17T12:01:02;25.60;85.40
16966;DHT22;8599;47.852;12.070;2022-07-17T12:03:30;25.70;85.30
16966;DHT22;8599;47.852;12.070;2022-07-17T12:05:58;26.00;86.00
16966;DHT22;8599;47.852;12.070;2022-07-17T12:08:24;26.00;82.70
16966;DHT22;8599;47.852;12.070;2022-07-17T12:11:02;26.20;84.30
16966;DHT22;8599;47.852;12.070;2022-07-17T12:13:38;26.30;82.60
16966;DHT22;8599;47.852;12.070;2022-07-17T12:16:19;26.10;84.40
16966;DHT22;8599;47.852;12.070;2022-07-17T12:19:00;26.30;81.60
16966;DHT22;8599;47.852;12.070;2022-07-17T12:21:31;26.40;81.60
16966;DHT22;8599;47.852;12.070;2022-07-17T12:24:00;26.50;81.10
16966;DHT22;8599;47.852;12.070;2022-07-17T12:26:28;26.50;79.20
16966;DHT22;8599;47.852;12.070;2022-07-17T12:28:55;26.50;80.70
16966;DHT22;8599;47.852;12.070;2022-07-17T12:31:22;26.30;80.20
16966;DHT22;8599;47.852;12.070;2022-07-17T12:33:51;26.50;81.00
16966;DHT22;8599;47.852;12.070;2022-07-17T12:36:20;26.50;80.90
16966;DHT22;8599;47.852;12.070;2022-07-17T12:38:47;26.60;81.10
16966;DHT22;8599;47.852;12.070;2022-07-17T12:41:14;26.80;82.80
16966;DHT22;8599;47.852;12.070;2022-07-17T12:43:41;27.10;82.50
16966;DHT22;8599;47.852;12.070;2022-07-17T12:46:08;27.20;79.60
16966;DHT22;8599;47.852;12.070;2022-07-17T12:48:36;27.10;78.70
16966;DHT22;8599;47.852;12.070;2022-07-17T12:51:05;27.00;80.80
16966;DHT22;8599;47.852;12.070;2022-07-17T12:53:33;27.10;78.90
16966;DHT22;8599;47.852;12.070;2022-07-17T12:56:01;27.40;79.50
16966;DHT22;8599;47.852;12.070;2022-07-17T12:58:28;27.40;77.80
16966;DHT22;8599;47.852;12.070;2022-07-17T13:00:55;27.60;79.00
16966;DHT22;8599;47.852;12.070;2022-07-17T13:03:22;27.90;77.00
16966;DHT22;8599;47.852;12.070;2022-07-17T13:05:49;27.80;77.90
16966;DHT22;8599;47.852;12.070;2022-07-17T13:08:16;27.90;77.40
16966;DHT22;8599;47.852;12.070;2022-07-17T13:10:44;27.70;75.70
16966;DHT22;8599;47.852;12.070;2022-07-17T13:13:11;27.80;75.00
16966;DHT22;8599;47.852;12.070;2022-07-17T13:15:38;28.20;75.40
16966;DHT22;8599;47.852;12.070;2022-07-17T13:18:05;28.50;74.40
16966;DHT22;8599;47.852;12.070;2022-07-17T13:20:32;28.30;75.30
16966;DHT22;8599;47.852;12.070;2022-07-17T13:22:59;28.30;74.10
16966;DHT22;8599;47.852;12.070;2022-07-17T13:25:26;28.70;75.10
16966;DHT22;8599;47.852;12.070;2022-07-17T13:27:54;28.70;72.90
16966;DHT22;8599;47.852;12.070;2022-07-17T13:30:21;28.60;74.20
16966;DHT22;8599;47.852;12.070;2022-07-17T13:32:48;28.90;72.30
16966;DHT22;8599;47.852;12.070;2022-07-17T13:35:15;28.80;72.90
16966;DHT22;8599;47.852;12.070;2022-07-17T13:37:43;29.00;72.80
16966;DHT22;8599;47.852;12.070;2022-07-17T13:40:11;28.90;68.80
16966;DHT22;8599;47.852;12.070;2022-07-17T13:42:38;29.10;70.10
16966;DHT22;8599;47.852;12.070;2022-07-17T13:45:08;29.50;72.10
16966;DHT22;8599;47.852;12.070;2022-07-17T13:47:35;29.90;70.90
16966;DHT22;8599;47.852;12.070;2022-07-17T13:50:02;29.60;70.70
16966;DHT22;8599;47.852;12.070;2022-07-17T13:52:29;29.70;69.90
16966;DHT22;8599;47.852;12.070;2022-07-17T13:54:57;30.20;69.30
16966;DHT22;8599;47.852;12.070;2022-07-17T13:57:25;30.30;69.00
16966;DHT22;8599;47.852;12.070;2022-07-17T13:59:52;29.90;68.20
16966;DHT22;8599;47.852;12.070;2022-07-17T14:02:21;29.20;68.50
16966;DHT22;8599;47.852;12.070;2022-07-17T14:04:48;29.30;67.40
16966;DHT22;8599;47.852;12.070;2022-07-17T14:07:15;29.50;66.50
16966;DHT22;8599;47.852;12.070;2022-07-17T14:09:42;29.30;67.50
16966;DHT22;8599;47.852;12.070;2022-07-17T14:12:09;29.50;66.90
16966;DHT22;8599;47.852;12.070;2022-07-17T14:14:36;29.90;67.30
16966;DHT22;8599;47.852;12.070;2022-07-17T14:17:03;30.30;66.90
16966;DHT22;8599;47.852;12.070;2022-07-17T14:19:32;29.80;63.70
16966;DHT22;8599;47.852;12.070;2022-07-17T14:21:59;29.20;65.50
16966;DHT22;8599;47.852;12.070;2022-07-17T14:24:26;29.70;67.70
16966;DHT22;8599;47.852;12.070;2022-07-17T14:26:53;30.10;64.30
16966;DHT22;8599;47.852;12.070;2022-07-17T14:29:20;29.90;63.00
16966;DHT22;8599;47.852;12.070;2022-07-17T14:31:47;29.60;63.80
16966;DHT22;8599;47.852;12.070;2022-07-17T14:34:14;29.90;64.70
16966;DHT22;8599;47.852;12.070;2022-07-17T14:36:43;29.50;63.20
16966;DHT22;8599;47.852;12.070;2022-07-17T14:39:10;29.90;65.20
16966;DHT22;8599;47.852;12.070;2022-07-17T14:41:38;30.30;64.70
16966;DHT22;8599;47.852;12.070;2022-07-17T14:44:05;30.40;63.30
16966;DHT22;8599;47.852;12.070;2022-07-17T14:46:32;30.60;62.80
16966;DHT22;8599;47.852;12.070;2022-07-17T14:49:00;30.80;61.70
16966;DHT22;8599;47.852;12.070;2022-07-17T14:51:27;30.20;62.20
16966;DHT22;8599;47.852;12.070;2022-07-17T14:53:55;29.90;63.30
16966;DHT22;8599;47.852;12.070;2022-07-17T14:56:22;29.80;63.00
16966;DHT22;8599;47.852;12.070;2022-07-17T14:58:49;29.60;61.50
16966;DHT22;8599;47.852;12.070;2022-07-17T15:01:16;29.50;60.20
16966;DHT22;8599;47.852;12.070;2022-07-17T15:03:43;29.70;61.80
16966;DHT22;8599;47.852;12.070;2022-07-17T15:06:10;29.30;61.30
16966;DHT22;8599;47.852;12.070;2022-07-17T15:08:38;29.90;60.60
16966;DHT22;8599;47.852;12.070;2022-07-17T15:11:07;30.50;59.40
16966;DHT22;8599;47.852;12.070;2022-07-17T15:13:34;31.00;60.00
16966;DHT22;8599;47.852;12.070;2022-07-17T15:16:01;31.20;59.60
16966;DHT22;8599;47.852;12.070;2022-07-17T15:18:29;30.40;58.60
16966;DHT22;8599;47.852;12.070;2022-07-17T15:20:56;29.90;59.70
16966;DHT22;8599;47.852;12.070;2022-07-17T15:23:23;29.90;61.40
16966;DHT22;8599;47.852;12.070;2022-07-17T15:25:49;30.30;60.70
16966;DHT22;8599;47.852;12.070;2022-07-17T15:28:18;29.90;60.60
16966;DHT22;8599;47.852;12.070;2022-07-17T15:30:45;29.90;59.60
16966;DHT22;8599;47.852;12.070;2022-07-17T15:33:11;29.90;59.70